Terminal Aerodrome Forecast
Issued by NWS

Home | Current Version | Previous Version | Text Only | Print | Product List | Glossary On
Versions: 1 2 3 4 5 6 7 8 9 10 11 12 13 14 15 16 17 18 19
165
FTUS43 KAPX 240520
TAFMBL
TAF
KMBL 240520Z 2406/2506 00000KT P6SM VCSH BKN060 OVC150
     FM241100 21007KT P6SM OVC080
     FM241600 22010G17KT P6SM BKN050
     FM242200 22010KT P6SM SHRA OVC040
     FM250400 30007KT P6SM VCSH BKN040=

USA.gov is the U.S. government's official web portal to all federal, state and local government web resources and services.